createdAt,value
2019-03-24T00:00:59.042Z,3.27
2019-03-24T00:06:54.008Z,3.8
2019-03-24T00:12:48.994Z,3.8
2019-03-24T00:18:43.993Z,3.84
2019-03-24T00:24:39.014Z,4.63
2019-03-24T00:30:33.996Z,3.97
2019-03-24T00:36:29.061Z,4.31
2019-03-24T00:42:24.039Z,4.51
2019-03-24T00:48:19.038Z,3.64
2019-03-24T00:54:14.037Z,3.76
2019-03-24T01:00:09.070Z,3.47
2019-03-24T01:06:04.041Z,3.79
2019-03-24T01:11:59.035Z,3.6
2019-03-24T01:17:54.057Z,3.83
2019-03-24T01:23:49.069Z,4.34
2019-03-24T01:29:44.104Z,4.49
2019-03-24T01:35:39.061Z,4.05
2019-03-24T01:41:34.079Z,3.94
2019-03-24T01:47:29.072Z,3.95
2019-03-24T01:53:24.049Z,4
2019-03-24T01:59:19.041Z,4.27
2019-03-24T02:05:14.127Z,3.88
2019-03-24T02:11:09.060Z,3.99
2019-03-24T02:17:04.068Z,4.3
2019-03-24T02:22:59.077Z,4.37
2019-03-24T02:28:54.076Z,4.67
2019-03-24T02:34:49.107Z,4.56
2019-03-24T02:40:44.148Z,4.48
2019-03-24T02:46:39.113Z,4.48
2019-03-24T02:52:34.094Z,4.4
2019-03-24T02:58:29.128Z,3.75
2019-03-24T03:04:24.105Z,4.07
2019-03-24T03:10:19.148Z,3.63
2019-03-24T03:16:14.111Z,3.83
2019-03-24T03:22:09.119Z,3.71
2019-03-24T03:28:04.112Z,4.45
2019-03-24T03:33:59.127Z,5.13
2019-03-24T03:39:57.621Z,5.76
2019-03-24T03:45:49.106Z,4.7
2019-03-24T03:51:44.135Z,5.4
2019-03-24T03:57:39.134Z,4.22
2019-03-24T04:03:34.130Z,4.93
2019-03-24T04:09:29.131Z,4.72
2019-03-24T04:15:24.158Z,4.51
2019-03-24T04:21:19.160Z,5.37
2019-03-24T04:27:14.181Z,4.3
2019-03-24T04:33:09.157Z,4.42
2019-03-24T04:39:04.160Z,4.58
2019-03-24T04:44:59.191Z,4.19
2019-03-24T04:50:54.187Z,5.44
2019-03-24T04:56:49.187Z,5.58
2019-03-24T05:02:44.165Z,4.38
2019-03-24T05:08:39.222Z,5.3
2019-03-24T05:14:34.163Z,5.01
2019-03-24T05:20:29.203Z,5.47
2019-03-24T05:26:24.154Z,4.88
2019-03-24T05:32:19.207Z,4.92
2019-03-24T05:38:14.220Z,5.5
2019-03-24T05:44:09.212Z,5.84
2019-03-24T05:50:04.213Z,5.64
2019-03-24T05:55:59.217Z,5.48
2019-03-24T06:01:54.266Z,7.91
2019-03-24T06:07:49.261Z,6.42
2019-03-24T06:13:44.212Z,5.4
2019-03-24T06:19:39.229Z,6.58
2019-03-24T06:25:34.971Z,7.07
2019-03-24T06:31:29.269Z,7.44
2019-03-24T06:37:24.230Z,7.47
2019-03-24T06:43:19.263Z,7.75
2019-03-24T06:49:14.217Z,8.66
2019-03-24T06:55:09.238Z,10.2
2019-03-24T07:01:04.286Z,10.06
2019-03-24T07:06:59.259Z,10.11
2019-03-24T07:12:54.236Z,10.44
2019-03-24T07:18:49.276Z,11.51
2019-03-24T07:24:44.274Z,10.87
2019-03-24T07:30:39.260Z,10.06
2019-03-24T07:36:34.244Z,10.29
2019-03-24T07:42:29.258Z,9.4
2019-03-24T07:48:24.261Z,10.53
2019-03-24T07:54:19.262Z,11.2
2019-03-24T08:00:14.300Z,10.86
2019-03-24T08:06:09.279Z,12.01
2019-03-24T08:12:04.272Z,12.33
2019-03-24T08:17:59.302Z,11.24
2019-03-24T08:23:54.324Z,11.8
2019-03-24T08:29:49.300Z,12.04
2019-03-24T08:35:44.334Z,11.22
2019-03-24T08:41:39.352Z,10.4
2019-03-24T08:47:34.320Z,11.1
2019-03-24T08:53:29.310Z,11.2
2019-03-24T08:59:24.354Z,10.77
2019-03-24T09:05:19.324Z,10.25
2019-03-24T09:11:14.337Z,10.23
2019-03-24T09:17:09.310Z,10.83
2019-03-24T09:23:04.330Z,10.73
2019-03-24T09:28:59.460Z,10.17
2019-03-24T09:34:54.321Z,9.05
2019-03-24T09:40:49.349Z,9.19
2019-03-24T09:46:44.339Z,8.57
2019-03-24T09:52:39.357Z,7.92
2019-03-24T09:58:34.377Z,7.71
2019-03-24T10:04:29.337Z,8.29
2019-03-24T10:10:24.372Z,6.97
2019-03-24T10:16:19.449Z,5.82
2019-03-24T10:22:14.404Z,5.83
2019-03-24T10:28:09.359Z,5.2
2019-03-24T10:34:04.372Z,5.71
2019-03-24T10:39:59.390Z,6.98
2019-03-24T10:45:54.384Z,6.16
2019-03-24T10:51:49.455Z,7.46
2019-03-24T10:57:44.412Z,8.54
2019-03-24T11:03:39.402Z,10.24
2019-03-24T11:09:34.438Z,6.87
2019-03-24T11:15:29.420Z,5.66
2019-03-24T11:21:24.454Z,6.3
2019-03-24T11:27:19.423Z,8.29
2019-03-24T11:33:14.436Z,18.19
2019-03-24T11:39:09.507Z,6.75
2019-03-24T11:45:04.479Z,22.42
2019-03-24T11:50:59.416Z,4.84
2019-03-24T11:56:54.427Z,5.18
2019-03-24T12:02:49.472Z,6.32
2019-03-24T12:08:44.434Z,4.83
2019-03-24T12:14:39.484Z,4.23
2019-03-24T12:20:34.474Z,3.37
2019-03-24T12:26:29.473Z,3.34
2019-03-24T12:32:24.482Z,3.82
2019-03-24T12:38:19.465Z,3.88
2019-03-24T12:44:14.485Z,3.53
2019-03-24T12:50:10.204Z,2.97
2019-03-24T12:56:04.492Z,3.11
2019-03-24T13:01:59.479Z,3.64
2019-03-24T13:07:54.534Z,3.36
2019-03-24T13:13:49.498Z,3.33
2019-03-24T13:19:44.501Z,3.25
2019-03-24T13:25:39.510Z,3.66
2019-03-24T13:31:34.493Z,3.53
2019-03-24T13:37:29.555Z,3.53
2019-03-24T13:43:24.494Z,3.49
2019-03-24T13:49:19.508Z,3.71
2019-03-24T13:55:14.517Z,3.72
2019-03-24T14:01:09.537Z,3
2019-03-24T14:07:04.600Z,3.4
2019-03-24T14:12:59.527Z,3.7
2019-03-24T14:18:54.549Z,3.42
2019-03-24T14:24:49.565Z,3.62
2019-03-24T14:30:44.527Z,3.32
2019-03-24T14:36:39.548Z,3.74
2019-03-24T14:42:34.574Z,4.02
2019-03-24T14:48:29.605Z,3.93
2019-03-24T14:54:24.559Z,3.57
2019-03-24T15:00:19.573Z,3.99
2019-03-24T15:06:14.612Z,3.65
2019-03-24T15:12:09.569Z,3
2019-03-24T15:18:04.601Z,3.29
2019-03-24T15:23:59.596Z,3.56
2019-03-24T15:29:54.598Z,9.11
2019-03-24T15:35:49.572Z,3.47
2019-03-24T15:41:44.600Z,3.73
2019-03-24T15:47:39.603Z,3.85
2019-03-24T15:53:34.601Z,3.83
2019-03-24T15:59:29.604Z,4.7
2019-03-24T16:05:24.631Z,4.5
2019-03-24T16:11:19.631Z,4.31
2019-03-24T16:17:14.612Z,4.2
2019-03-24T16:23:09.633Z,4.08
2019-03-24T16:29:04.637Z,5.04
2019-03-24T16:34:59.622Z,4.27
2019-03-24T16:40:54.652Z,3.87
2019-03-24T16:46:49.672Z,4.24
2019-03-24T16:52:44.633Z,3.81
2019-03-24T16:58:39.678Z,4
2019-03-24T17:04:34.675Z,3.2
2019-03-24T17:10:29.659Z,4.23
2019-03-24T17:16:24.659Z,3.54
2019-03-24T17:22:19.700Z,3.74
2019-03-24T17:28:14.683Z,3.67
2019-03-24T17:34:09.653Z,3.93
2019-03-24T17:40:04.662Z,3.48
2019-03-24T17:45:59.705Z,3.34
2019-03-24T17:52:00.573Z,3.28
2019-03-24T17:57:49.679Z,2.89
2019-03-24T18:03:44.689Z,3.25
2019-03-24T18:09:39.708Z,3.38
2019-03-24T18:15:34.755Z,3.08
2019-03-24T18:21:29.688Z,3.53
2019-03-24T18:27:24.691Z,3.48
2019-03-24T18:33:19.703Z,3.5
2019-03-24T18:39:14.737Z,4.55
2019-03-24T18:45:09.736Z,3.41
2019-03-24T18:51:04.698Z,3.78
2019-03-24T18:56:59.706Z,3.78
2019-03-24T19:02:54.720Z,3.67
2019-03-24T19:08:49.717Z,3.87
2019-03-24T19:14:44.769Z,4.3
2019-03-24T19:20:39.769Z,4.34
2019-03-24T19:26:34.732Z,5.57
2019-03-24T19:32:29.743Z,6.02
2019-03-24T19:38:24.738Z,6.6
2019-03-24T19:44:19.745Z,6.36
2019-03-24T19:50:14.754Z,6.47
2019-03-24T19:56:09.766Z,7.43
2019-03-24T20:02:04.797Z,7.63
2019-03-24T20:07:59.775Z,8.33
2019-03-24T20:13:54.753Z,9.3
2019-03-24T20:19:49.776Z,10.16
2019-03-24T20:25:44.839Z,11.11
2019-03-24T20:31:39.833Z,13.53
2019-03-24T20:37:34.803Z,13.03
2019-03-24T20:43:29.783Z,13.09
2019-03-24T20:49:24.824Z,12.77
2019-03-24T20:55:19.774Z,12.4
2019-03-24T21:01:14.802Z,12.88
2019-03-24T21:07:09.795Z,13.8
2019-03-24T21:13:04.807Z,14.52
2019-03-24T21:18:59.794Z,14.49
2019-03-24T21:24:54.832Z,13.95
2019-03-24T21:30:49.795Z,13.13
2019-03-24T21:36:44.829Z,14.15
2019-03-24T21:42:39.797Z,14.64
2019-03-24T21:48:34.837Z,15.18
2019-03-24T21:54:29.807Z,15.09
2019-03-24T22:00:24.835Z,16.65
2019-03-24T22:06:19.836Z,17.69
2019-03-24T22:12:14.853Z,17.92
2019-03-24T22:18:09.852Z,18.89
2019-03-24T22:24:04.886Z,20.35
2019-03-24T22:29:59.831Z,18.3
2019-03-24T22:35:54.845Z,20.13
2019-03-24T22:41:49.840Z,21.12
2019-03-24T22:47:44.845Z,19.08
2019-03-24T22:53:39.836Z,17.91
2019-03-24T22:59:34.843Z,17.48
2019-03-24T23:05:29.920Z,18.7
2019-03-24T23:11:24.914Z,19.83
2019-03-24T23:17:19.923Z,19.52
2019-03-24T23:23:14.896Z,20.99
2019-03-24T23:29:09.872Z,21.21
2019-03-24T23:35:04.873Z,23.02
2019-03-24T23:40:59.923Z,22.63
2019-03-24T23:46:54.932Z,23.51
2019-03-24T23:52:49.942Z,23.84
2019-03-24T23:58:44.893Z,24.16
